createdAt,value
2022-12-17T00:00:50.981Z,1.84
2022-12-17T00:03:37.762Z,1.97
2022-12-17T00:06:23.730Z,1.83
2022-12-17T00:09:09.213Z,1.80
2022-12-17T00:11:54.634Z,1.88
2022-12-17T00:14:41.846Z,1.87
2022-12-17T00:17:27.256Z,1.97
2022-12-17T00:20:12.574Z,1.84
2022-12-17T00:22:58.174Z,1.98
2022-12-17T00:25:44.668Z,1.77
2022-12-17T00:28:31.150Z,1.80
2022-12-17T00:31:16.778Z,1.82
2022-12-17T00:34:02.235Z,1.83
2022-12-17T00:36:47.700Z,1.69
2022-12-17T00:39:33.060Z,1.75
2022-12-17T00:42:18.594Z,1.83
2022-12-17T00:45:04.287Z,1.72
2022-12-17T00:47:49.813Z,1.73
2022-12-17T00:50:35.834Z,1.69
2022-12-17T00:53:21.473Z,1.67
2022-12-17T00:56:07.111Z,1.83
2022-12-17T00:58:52.798Z,1.75
2022-12-17T01:01:38.334Z,1.67
2022-12-17T01:04:23.796Z,1.62
2022-12-17T01:07:09.268Z,1.61
2022-12-17T01:09:55.199Z,1.69
2022-12-17T01:12:41.472Z,1.57
2022-12-17T01:15:27.007Z,1.62
2022-12-17T01:18:12.543Z,1.57
2022-12-17T01:20:57.860Z,1.65
2022-12-17T01:23:43.284Z,1.72
2022-12-17T01:26:28.700Z,1.72
2022-12-17T01:29:16.040Z,1.72
2022-12-17T01:32:01.499Z,1.51
2022-12-17T01:34:46.897Z,1.55
2022-12-17T01:37:32.310Z,1.62
2022-12-17T01:40:18.001Z,1.66
2022-12-17T01:43:04.776Z,1.61
2022-12-17T01:46:08.539Z,1.41
2022-12-17T01:48:59.230Z,1.60
2022-12-17T01:51:44.767Z,1.52
2022-12-17T01:54:30.749Z,1.41
2022-12-17T01:57:16.479Z,1.64
2022-12-17T02:00:23.052Z,1.47
2022-12-17T02:03:08.695Z,1.44
2022-12-17T02:06:02.331Z,1.41
2022-12-17T02:09:15.736Z,1.44
2022-12-17T02:12:13.854Z,1.60
2022-12-17T02:15:05.653Z,1.44
2022-12-17T02:18:04.212Z,1.31
2022-12-17T02:20:53.775Z,1.53
2022-12-17T02:24:01.877Z,1.37
2022-12-17T02:27:01.867Z,1.30
2022-12-17T02:29:50.647Z,1.56
2022-12-17T02:32:36.333Z,1.42
2022-12-17T02:35:23.390Z,1.29
2022-12-17T02:38:09.213Z,1.34
2022-12-17T02:40:57.595Z,1.45
2022-12-17T02:43:44.623Z,1.38
2022-12-17T02:46:30.187Z,1.37
2022-12-17T02:49:15.604Z,1.34
2022-12-17T02:52:01.783Z,1.28
2022-12-17T02:54:50.989Z,1.27
2022-12-17T02:57:39.984Z,1.30
2022-12-17T03:00:30.070Z,1.34
2022-12-17T03:03:15.627Z,1.32
2022-12-17T03:06:01.342Z,1.23
2022-12-17T03:08:46.766Z,1.17
2022-12-17T03:11:32.223Z,1.31
2022-12-17T03:14:17.871Z,1.17
2022-12-17T03:17:03.525Z,1.33
2022-12-17T03:19:51.597Z,1.20
2022-12-17T03:22:37.330Z,1.10
2022-12-17T03:25:25.594Z,1.21
2022-12-17T03:28:11.142Z,1.20
2022-12-17T03:30:56.979Z,1.20
2022-12-17T03:33:42.334Z,1.25
2022-12-17T03:36:28.167Z,1.26
2022-12-17T03:39:13.775Z,1.17
2022-12-17T03:41:59.604Z,1.11
2022-12-17T03:44:49.620Z,1.18
2022-12-17T03:47:35.354Z,1.02
2022-12-17T03:50:22.125Z,1.18
2022-12-17T03:53:16.008Z,1.01
2022-12-17T03:56:01.453Z,1.10
2022-12-17T03:58:50.502Z,1.05
2022-12-17T04:01:36.066Z,1.00
2022-12-17T04:04:21.696Z,1.01
2022-12-17T04:07:09.739Z,1.04
2022-12-17T04:10:08.321Z,1.00
2022-12-17T04:12:57.159Z,1.20
2022-12-17T04:15:52.204Z,1.11
2022-12-17T04:18:37.807Z,1.16
2022-12-17T04:21:24.423Z,0.99
2022-12-17T04:24:09.876Z,0.95
2022-12-17T04:27:01.454Z,1.05
2022-12-17T04:29:46.910Z,0.97
2022-12-17T04:32:35.875Z,0.88
2022-12-17T04:35:21.591Z,0.84
2022-12-17T04:38:14.695Z,0.97
2022-12-17T04:41:01.315Z,0.92
2022-12-17T04:43:46.723Z,1.00
2022-12-17T04:46:34.871Z,0.96
2022-12-17T04:49:20.314Z,0.91
2022-12-17T04:52:08.299Z,0.88
2022-12-17T04:54:53.946Z,0.79
2022-12-17T04:57:41.843Z,0.84
2022-12-17T05:00:27.892Z,0.97
2022-12-17T05:03:13.689Z,0.74
2022-12-17T05:06:00.292Z,0.73
2022-12-17T05:08:45.600Z,0.75
2022-12-17T05:11:31.259Z,0.73
2022-12-17T05:14:17.936Z,0.85
2022-12-17T05:17:04.504Z,0.76
2022-12-17T05:19:50.104Z,0.73
2022-12-17T05:22:35.574Z,0.66
2022-12-17T05:25:21.369Z,0.60
2022-12-17T05:28:06.895Z,0.63
2022-12-17T05:30:52.560Z,0.72
2022-12-17T05:33:38.496Z,0.63
2022-12-17T05:36:24.313Z,0.62
2022-12-17T05:39:09.746Z,0.73
2022-12-17T05:41:55.116Z,0.59
2022-12-17T05:44:43.029Z,0.73
2022-12-17T05:47:28.642Z,0.60
2022-12-17T05:50:14.362Z,0.65
2022-12-17T05:52:59.920Z,0.60
2022-12-17T05:55:45.489Z,0.68
2022-12-17T05:58:30.875Z,0.53
2022-12-17T06:01:19.017Z,0.68
2022-12-17T06:04:04.540Z,0.59
2022-12-17T06:06:51.021Z,0.59
2022-12-17T06:09:36.802Z,0.59
2022-12-17T06:12:22.245Z,0.67
2022-12-17T06:15:07.890Z,0.57
2022-12-17T06:17:53.267Z,0.55
2022-12-17T06:20:38.792Z,0.57
2022-12-17T06:23:34.321Z,0.50
2022-12-17T06:26:23.431Z,0.73
2022-12-17T06:29:11.324Z,0.43
2022-12-17T06:31:57.132Z,0.44
2022-12-17T06:34:42.604Z,0.44
2022-12-17T06:37:27.999Z,0.48
2022-12-17T06:40:19.461Z,0.60
2022-12-17T06:43:13.638Z,0.52
2022-12-17T06:45:59.036Z,0.45
2022-12-17T06:48:44.745Z,0.44
2022-12-17T06:51:30.500Z,0.47
2022-12-17T06:54:16.130Z,0.40
2022-12-17T06:57:01.679Z,0.36
2022-12-17T06:59:47.238Z,0.64
2022-12-17T07:02:46.703Z,0.47
2022-12-17T07:05:42.983Z,0.32
2022-12-17T07:08:28.742Z,0.34
2022-12-17T07:11:14.023Z,0.32
2022-12-17T07:13:59.649Z,0.40
2022-12-17T07:16:45.307Z,0.57
2022-12-17T07:19:30.806Z,0.30
2022-12-17T07:22:16.586Z,0.38
2022-12-17T07:25:01.995Z,0.55
2022-12-17T07:27:47.374Z,0.33
2022-12-17T07:30:33.193Z,0.56
2022-12-17T07:33:23.678Z,0.35
2022-12-17T07:36:10.995Z,0.58
2022-12-17T07:38:56.502Z,0.46
2022-12-17T07:41:41.822Z,0.35
2022-12-17T07:44:27.325Z,0.57
2022-12-17T07:47:29.569Z,0.54
2022-12-17T07:50:14.753Z,0.47
2022-12-17T07:53:00.351Z,0.38
2022-12-17T07:55:46.057Z,0.55
2022-12-17T07:58:31.783Z,0.44
2022-12-17T08:01:20.482Z,0.53
2022-12-17T08:04:05.899Z,0.50
2022-12-17T08:06:55.119Z,0.51
2022-12-17T08:09:43.929Z,0.69
2022-12-17T08:12:29.600Z,0.58
2022-12-17T08:15:15.193Z,0.49
2022-12-17T08:18:07.845Z,0.61
2022-12-17T08:20:54.553Z,0.58
2022-12-17T08:23:41.004Z,0.67
2022-12-17T08:26:26.503Z,0.63
2022-12-17T08:29:12.172Z,0.53
2022-12-17T08:31:57.776Z,0.58
2022-12-17T08:34:43.428Z,0.45
2022-12-17T08:37:36.360Z,0.51
2022-12-17T08:40:31.824Z,0.49
2022-12-17T08:43:17.419Z,0.55
2022-12-17T08:46:07.081Z,0.50
2022-12-17T08:48:54.408Z,0.50
2022-12-17T08:51:40.975Z,0.59
2022-12-17T08:54:26.549Z,0.67
2022-12-17T08:57:31.524Z,0.57
2022-12-17T09:00:18.073Z,0.72
2022-12-17T09:03:04.710Z,0.57
2022-12-17T09:06:00.446Z,0.68
2022-12-17T09:08:52.435Z,0.55
2022-12-17T09:11:39.069Z,0.63
2022-12-17T09:14:29.881Z,0.53
2022-12-17T09:17:20.849Z,0.82
2022-12-17T09:20:19.141Z,0.60
2022-12-17T09:23:07.350Z,0.63
2022-12-17T09:26:00.109Z,0.74
2022-12-17T09:28:48.853Z,0.80
2022-12-17T09:31:40.788Z,0.61
2022-12-17T09:34:26.314Z,0.66
2022-12-17T09:37:24.737Z,0.73
2022-12-17T09:40:12.953Z,0.77
2022-12-17T09:43:54.881Z,0.80
2022-12-17T09:46:29.972Z,0.70
2022-12-17T09:49:44.830Z,0.96
2022-12-17T09:52:43.931Z,0.77
2022-12-17T09:55:47.932Z,0.75
2022-12-17T09:58:44.033Z,0.76
2022-12-17T10:01:38.529Z,0.86
2022-12-17T10:04:26.526Z,0.71
2022-12-17T10:07:35.530Z,0.79
2022-12-17T10:11:34.565Z,0.73
2022-12-17T10:13:53.381Z,0.69
2022-12-17T10:16:44.942Z,0.95
2022-12-17T10:19:54.377Z,0.65
2022-12-17T10:22:39.936Z,0.83
2022-12-17T10:25:36.047Z,0.77
2022-12-17T10:28:25.364Z,0.76
2022-12-17T10:31:10.979Z,0.59
2022-12-17T10:33:57.406Z,0.69
2022-12-17T10:36:43.193Z,0.67
2022-12-17T10:39:37.243Z,0.56
2022-12-17T10:42:22.955Z,0.43
2022-12-17T10:45:08.321Z,0.51
2022-12-17T10:47:54.020Z,0.46
2022-12-17T10:50:42.060Z,0.73
2022-12-17T10:53:40.703Z,0.57
2022-12-17T10:56:26.153Z,0.54
2022-12-17T10:59:12.306Z,0.68
2022-12-17T11:02:00.776Z,0.58
2022-12-17T11:04:47.995Z,0.49
2022-12-17T11:07:36.536Z,0.64
2022-12-17T11:10:22.652Z,0.71
2022-12-17T11:13:10.658Z,0.80
2022-12-17T11:16:04.299Z,0.53
2022-12-17T11:18:55.934Z,0.75
2022-12-17T11:22:12.200Z,0.72
2022-12-17T11:25:22.263Z,0.66
2022-12-17T11:28:17.367Z,0.55
2022-12-17T11:31:07.819Z,0.55
2022-12-17T11:34:09.971Z,0.68
2022-12-17T11:37:04.003Z,0.81
2022-12-17T11:40:17.741Z,0.62
2022-12-17T11:43:09.628Z,0.64
2022-12-17T11:46:16.373Z,0.72
2022-12-17T11:49:04.708Z,0.63
2022-12-17T11:52:32.346Z,0.78
2022-12-17T11:55:30.166Z,0.69
2022-12-17T11:58:19.892Z,0.75
2022-12-17T12:01:20.761Z,0.62
2022-12-17T12:04:13.852Z,0.60
2022-12-17T12:07:18.701Z,0.62
2022-12-17T12:10:07.006Z,0.77
2022-12-17T12:13:02.523Z,0.79
2022-12-17T12:16:07.674Z,0.78
2022-12-17T12:19:05.383Z,0.75
2022-12-17T12:22:10.265Z,0.57
2022-12-17T12:25:09.666Z,0.67
2022-12-17T12:28:06.749Z,0.61
2022-12-17T12:31:00.673Z,0.64
2022-12-17T12:34:14.120Z,0.58
2022-12-17T12:36:59.455Z,0.58
2022-12-17T12:39:53.207Z,0.57
2022-12-17T12:42:44.025Z,0.53
2022-12-17T12:45:48.232Z,0.56
2022-12-17T12:48:40.052Z,0.53
2022-12-17T12:51:42.899Z,0.52
2022-12-17T12:54:40.731Z,0.52
2022-12-17T12:58:11.104Z,0.50
2022-12-17T13:00:58.280Z,0.32
2022-12-17T13:03:45.763Z,0.50
2022-12-17T13:06:14.069Z,0.50
2022-12-17T13:08:41.280Z,0.33
2022-12-17T13:11:28.748Z,0.46
2022-12-17T13:13:57.685Z,0.44
2022-12-17T13:16:48.806Z,0.50
2022-12-17T13:19:31.385Z,0.49
2022-12-17T13:22:21.664Z,0.54
2022-12-17T13:24:52.509Z,0.43
2022-12-17T13:27:34.122Z,0.49
2022-12-17T13:30:19.030Z,0.55
2022-12-17T13:33:16.285Z,0.54
2022-12-17T13:36:09.306Z,0.57
2022-12-17T13:38:39.383Z,0.56
2022-12-17T13:41:10.837Z,0.58
2022-12-17T13:43:54.176Z,0.41
2022-12-17T13:46:47.278Z,0.45
2022-12-17T13:49:18.485Z,0.38
2022-12-17T13:51:45.790Z,0.47
2022-12-17T13:54:16.314Z,0.63
2022-12-17T13:56:43.288Z,0.66
2022-12-17T13:59:22.210Z,0.55
2022-12-17T14:01:51.084Z,0.58
2022-12-17T14:04:22.097Z,0.46
2022-12-17T14:06:49.083Z,0.45
2022-12-17T14:12:38.524Z,0.53
2022-12-17T14:15:27.207Z,0.35
2022-12-17T14:17:59.048Z,0.63
2022-12-17T14:20:41.403Z,0.66
2022-12-17T14:23:30.470Z,0.39
2022-12-17T14:26:01.065Z,0.68
2022-12-17T14:28:38.092Z,0.79
2022-12-17T14:31:27.483Z,0.85
2022-12-17T14:34:02.294Z,0.90
2022-12-17T14:36:29.400Z,0.89
2022-12-17T14:39:03.690Z,0.92
2022-12-17T14:41:54.552Z,0.63
2022-12-17T14:44:24.123Z,0.60
2022-12-17T14:46:51.950Z,0.59
2022-12-17T14:49:20.305Z,0.89
2022-12-17T14:51:47.345Z,0.69
2022-12-17T14:54:14.343Z,0.83
2022-12-17T14:56:41.803Z,0.66
2022-12-17T14:59:24.736Z,0.70
2022-12-17T15:01:56.451Z,0.81
2022-12-17T15:04:23.732Z,0.69
2022-12-17T15:06:50.769Z,0.85
2022-12-17T15:09:17.685Z,0.78
2022-12-17T15:11:44.560Z,0.75
2022-12-17T15:14:11.365Z,0.69
2022-12-17T15:16:38.338Z,0.66
2022-12-17T15:19:05.265Z,0.63
2022-12-17T15:21:33.641Z,0.62
2022-12-17T15:24:00.559Z,0.42
2022-12-17T15:26:27.469Z,0.36
2022-12-17T15:28:54.770Z,0.58
2022-12-17T15:31:25.007Z,0.44
2022-12-17T15:33:53.700Z,0.63
2022-12-17T15:36:20.558Z,0.58
2022-12-17T15:38:47.707Z,0.61
2022-12-17T15:41:33.837Z,0.64
2022-12-17T15:44:00.803Z,0.45
2022-12-17T15:46:30.043Z,0.46
2022-12-17T15:48:57.200Z,0.62
2022-12-17T15:51:24.117Z,0.49
2022-12-17T15:53:51.107Z,0.40
2022-12-17T15:56:23.410Z,0.55
2022-12-17T15:58:50.473Z,0.54
2022-12-17T16:01:17.781Z,0.58
2022-12-17T16:03:44.865Z,0.40
2022-12-17T16:06:11.921Z,0.40
2022-12-17T16:08:39.633Z,0.42
2022-12-17T16:11:13.999Z,0.51
2022-12-17T16:13:41.044Z,0.38
2022-12-17T16:16:08.987Z,0.53
2022-12-17T16:18:39.223Z,0.36
2022-12-17T16:21:10.104Z,0.55
2022-12-17T16:23:37.149Z,0.53
2022-12-17T16:26:08.057Z,0.39
2022-12-17T16:28:35.798Z,0.34
2022-12-17T16:31:08.106Z,0.54
2022-12-17T16:33:37.008Z,0.35
2022-12-17T16:36:04.652Z,0.49
2022-12-17T16:38:31.866Z,0.36
2022-12-17T16:41:01.312Z,0.54
2022-12-17T16:43:30.487Z,0.43
2022-12-17T16:45:57.652Z,0.41
2022-12-17T16:48:24.739Z,0.40
2022-12-17T16:50:51.708Z,0.53
2022-12-17T16:53:21.427Z,0.38
2022-12-17T16:55:49.648Z,0.48
2022-12-17T16:58:17.292Z,0.43
2022-12-17T17:00:45.323Z,0.37
2022-12-17T17:03:12.560Z,0.36
2022-12-17T17:05:39.976Z,0.37
2022-12-17T17:08:07.062Z,0.39
2022-12-17T17:10:35.645Z,0.41
2022-12-17T17:13:02.753Z,0.40
2022-12-17T17:15:29.621Z,0.52
2022-12-17T17:18:01.954Z,0.32
2022-12-17T17:20:32.613Z,0.50
2022-12-17T17:22:59.920Z,0.32
2022-12-17T17:25:38.833Z,0.30
2022-12-17T17:28:14.152Z,0.45
2022-12-17T17:30:41.081Z,0.27
2022-12-17T17:33:07.942Z,0.29
2022-12-17T17:35:34.940Z,0.46
2022-12-17T17:38:01.803Z,0.27
2022-12-17T17:40:28.747Z,0.30
2022-12-17T17:42:55.644Z,0.36
2022-12-17T17:45:22.589Z,0.37
2022-12-17T17:47:49.444Z,0.18
2022-12-17T17:50:16.500Z,0.36
2022-12-17T17:52:43.379Z,0.06
2022-12-17T17:55:10.291Z,0.10
2022-12-17T17:57:37.179Z,0.28
2022-12-17T18:00:04.594Z,0.20
2022-12-17T18:02:32.409Z,0.09
2022-12-17T18:04:59.461Z,0.20
2022-12-17T18:07:27.160Z,0.14
2022-12-17T18:09:54.963Z,0.03
2022-12-17T18:12:40.369Z,0.14
2022-12-17T18:15:17.716Z,-0.06
2022-12-17T18:17:50.211Z,0.00
2022-12-17T18:20:17.226Z,-0.08
2022-12-17T18:22:46.354Z,-0.17
2022-12-17T18:25:14.451Z,-0.05
2022-12-17T18:27:41.376Z,-0.17
2022-12-17T18:30:08.961Z,-0.11
2022-12-17T18:32:36.079Z,-0.07
2022-12-17T18:35:02.965Z,-0.29
2022-12-17T18:37:29.851Z,-0.28
2022-12-17T18:39:56.797Z,-0.29
2022-12-17T18:42:42.170Z,-0.33
2022-12-17T18:45:09.401Z,-0.36
2022-12-17T18:47:36.252Z,-0.21
2022-12-17T18:50:03.256Z,-0.24
2022-12-17T18:52:30.148Z,-0.41
2022-12-17T18:54:57.107Z,-0.29
2022-12-17T18:57:24.140Z,-0.31
2022-12-17T18:59:51.020Z,-0.49
2022-12-17T19:02:18.137Z,-0.51
2022-12-17T19:04:45.108Z,-0.39
2022-12-17T19:07:12.000Z,-0.56
2022-12-17T19:09:40.528Z,-0.59
2022-12-17T19:12:08.365Z,-0.54
2022-12-17T19:14:35.523Z,-0.63
2022-12-17T19:17:02.616Z,-0.70
2022-12-17T19:19:29.621Z,-0.68
2022-12-17T19:21:56.582Z,-0.53
2022-12-17T19:24:23.642Z,-0.71
2022-12-17T19:26:50.722Z,-0.57
2022-12-17T19:29:17.990Z,-0.64
2022-12-17T19:31:45.903Z,-0.79
2022-12-17T19:34:14.056Z,-0.64
2022-12-17T19:36:41.013Z,-0.81
2022-12-17T19:39:08.884Z,-0.80
2022-12-17T19:41:35.757Z,-0.71
2022-12-17T19:44:04.567Z,-0.89
2022-12-17T19:46:32.060Z,-0.77
2022-12-17T19:48:59.023Z,-0.82
2022-12-17T19:51:28.343Z,-0.90
2022-12-17T19:53:55.350Z,-0.93
2022-12-17T19:56:26.558Z,-1.06
2022-12-17T19:58:55.976Z,-0.86
2022-12-17T20:01:28.104Z,-1.04
2022-12-17T20:03:55.257Z,-1.09
2022-12-17T20:06:24.116Z,-0.99
2022-12-17T20:08:51.013Z,-1.11
2022-12-17T20:11:36.227Z,-1.16
2022-12-17T20:14:09.400Z,-1.01
2022-12-17T20:16:38.246Z,-1.19
2022-12-17T20:19:08.229Z,-1.13
2022-12-17T20:21:35.130Z,-1.24
2022-12-17T20:24:02.183Z,-1.28
2022-12-17T20:26:29.038Z,-1.28
2022-12-17T20:28:56.036Z,-1.34
2022-12-17T20:31:23.057Z,-1.17
2022-12-17T20:33:50.004Z,-1.19
2022-12-17T20:36:18.753Z,-1.38
2022-12-17T20:38:45.749Z,-1.37
2022-12-17T20:41:19.886Z,-1.41
2022-12-17T20:43:47.071Z,-1.44
2022-12-17T20:46:14.231Z,-1.38
2022-12-17T20:48:42.117Z,-1.52
2022-12-17T20:51:13.281Z,-1.34
2022-12-17T20:53:40.327Z,-1.36
2022-12-17T20:56:09.174Z,-1.52
2022-12-17T20:58:36.652Z,-1.54
2022-12-17T21:01:09.269Z,-1.43
2022-12-17T21:03:36.277Z,-1.63
2022-12-17T21:06:11.093Z,-1.71
2022-12-17T21:08:39.268Z,-1.50
2022-12-17T21:11:08.509Z,-1.67
2022-12-17T21:13:35.550Z,-1.60
2022-12-17T21:16:07.132Z,-1.73
2022-12-17T21:18:34.174Z,-1.63
2022-12-17T21:21:09.041Z,-1.65
2022-12-17T21:23:36.218Z,-1.85
2022-12-17T21:26:13.970Z,-1.68
2022-12-17T21:28:42.458Z,-1.86
2022-12-17T21:31:31.575Z,-1.93
2022-12-17T21:34:00.639Z,-1.85
2022-12-17T21:36:28.749Z,-1.85
2022-12-17T21:38:55.853Z,-1.98
2022-12-17T21:41:26.805Z,-1.83
2022-12-17T21:43:58.811Z,-1.81
2022-12-17T21:46:29.149Z,-1.88
2022-12-17T21:48:57.208Z,-2.02
2022-12-17T21:51:24.166Z,-1.99
2022-12-17T21:53:59.020Z,-2.08
2022-12-17T21:56:26.308Z,-1.98
2022-12-17T21:59:00.168Z,-2.16
2022-12-17T22:01:28.037Z,-2.10
2022-12-17T22:03:56.777Z,-2.22
2022-12-17T22:06:25.960Z,-2.21
2022-12-17T22:09:00.176Z,-2.13
2022-12-17T22:11:36.507Z,-2.07
2022-12-17T22:14:08.618Z,-2.18
2022-12-17T22:16:42.484Z,-2.23
2022-12-17T22:19:10.525Z,-2.13
2022-12-17T22:21:39.283Z,-2.30
2022-12-17T22:24:06.689Z,-2.26
2022-12-17T22:26:36.348Z,-2.22
2022-12-17T22:29:03.487Z,-2.33
2022-12-17T22:32:05.706Z,-2.38
2022-12-17T22:35:31.277Z,-2.39
2022-12-17T22:42:17.664Z,-2.44
2022-12-17T22:44:17.219Z,-2.25
2022-12-17T22:44:49.041Z,-2.43
2022-12-17T22:46:03.991Z,-2.45
2022-12-17T22:48:31.878Z,-2.45
2022-12-17T22:51:05.833Z,-2.41
2022-12-17T22:53:37.368Z,-2.42
2022-12-17T22:56:18.521Z,-2.35
2022-12-17T22:58:53.399Z,-2.34
2022-12-17T23:01:23.178Z,-2.44
2022-12-17T23:03:54.125Z,-2.35
2022-12-17T23:06:21.270Z,-2.35
2022-12-17T23:08:48.132Z,-2.52
2022-12-17T23:11:17.427Z,-2.36
2022-12-17T23:13:44.320Z,-2.50
2022-12-17T23:16:13.350Z,-2.53
2022-12-17T23:18:41.256Z,-2.35
2022-12-17T23:21:10.958Z,-2.36
2022-12-17T23:23:38.437Z,-2.49
2022-12-17T23:26:14.205Z,-2.42
2022-12-17T23:28:41.373Z,-2.44
2022-12-17T23:31:10.137Z,-2.56
2022-12-17T23:33:37.625Z,-2.41
2022-12-17T23:36:06.595Z,-2.47
2022-12-17T23:38:33.785Z,-2.60
2022-12-17T23:41:10.853Z,-2.62
2022-12-17T23:43:38.313Z,-2.63
2022-12-17T23:46:05.586Z,-2.58
2022-12-17T23:48:34.028Z,-2.56
2022-12-17T23:51:01.023Z,-2.56
2022-12-17T23:53:28.750Z,-2.61
2022-12-17T23:55:55.716Z,-2.62
2022-12-17T23:58:22.822Z,-2.64
